sensor_id;sensor_type;location;lat;lon;timestamp;P1;durP1;ratioP1;P2;durP2;ratioP2
12038;SDS011;6080;48.818;9.526;2023-06-04T03:02:36;19.33;;;17.77;;
12038;SDS011;6080;48.818;9.526;2023-06-04T03:05:02;13.03;;;12.33;;
12038;SDS011;6080;48.818;9.526;2023-06-04T03:07:29;43.97;;;41.57;;
12038;SDS011;6080;48.818;9.526;2023-06-04T03:09:55;47.80;;;45.33;;
12038;SDS011;6080;48.818;9.526;2023-06-04T03:12:21;41.37;;;38.53;;
12038;SDS011;6080;48.818;9.526;2023-06-04T03:14:46;48.47;;;45.93;;
12038;SDS011;6080;48.818;9.526;2023-06-04T03:17:12;52.93;;;49.83;;
12038;SDS011;6080;48.818;9.526;2023-06-04T03:19:39;43.90;;;41.50;;
12038;SDS011;6080;48.818;9.526;2023-06-04T03:22:06;44.17;;;41.73;;
12038;SDS011;6080;48.818;9.526;2023-06-04T03:24:37;47.43;;;44.87;;
12038;SDS011;6080;48.818;9.526;2023-06-04T03:27:04;24.67;;;23.27;;
12038;SDS011;6080;48.818;9.526;2023-06-04T03:29:32;13.83;;;12.70;;
12038;SDS011;6080;48.818;9.526;2023-06-04T03:31:58;11.73;;;10.43;;
12038;SDS011;6080;48.818;9.526;2023-06-04T03:34:25;10.40;;;9.37;;
12038;SDS011;6080;48.818;9.526;2023-06-04T03:36:51;7.87;;;7.37;;
12038;SDS011;6080;48.818;9.526;2023-06-04T03:39:18;9.80;;;8.90;;
12038;SDS011;6080;48.818;9.526;2023-06-04T03:41:44;10.50;;;8.80;;
12038;SDS011;6080;48.818;9.526;2023-06-04T03:44:12;10.00;;;9.30;;
12038;SDS011;6080;48.818;9.526;2023-06-04T03:46:41;10.87;;;10.23;;
12038;SDS011;6080;48.818;9.526;2023-06-04T03:49:11;9.50;;;8.63;;
12038;SDS011;6080;48.818;9.526;2023-06-04T03:51:38;17.10;;;15.87;;
12038;SDS011;6080;48.818;9.526;2023-06-04T03:54:04;26.40;;;24.70;;
12038;SDS011;6080;48.818;9.526;2023-06-04T03:56:30;19.00;;;17.90;;
12038;SDS011;6080;48.818;9.526;2023-06-04T03:58:57;48.90;;;46.40;;
12038;SDS011;6080;48.818;9.526;2023-06-04T04:01:23;60.83;;;57.70;;
12038;SDS011;6080;48.818;9.526;2023-06-04T04:03:50;57.67;;;54.43;;
12038;SDS011;6080;48.818;9.526;2023-06-04T04:06:16;53.57;;;50.83;;
12038;SDS011;6080;48.818;9.526;2023-06-04T04:08:42;72.43;;;68.43;;
12038;SDS011;6080;48.818;9.526;2023-06-04T04:11:12;78.63;;;74.63;;
12038;SDS011;6080;48.818;9.526;2023-06-04T04:13:41;78.30;;;74.50;;
12038;SDS011;6080;48.818;9.526;2023-06-04T04:16:07;47.73;;;45.20;;
12038;SDS011;6080;48.818;9.526;2023-06-04T04:18:33;34.57;;;32.77;;
12038;SDS011;6080;48.818;9.526;2023-06-04T04:21:00;28.63;;;27.10;;
12038;SDS011;6080;48.818;9.526;2023-06-04T04:23:27;27.33;;;25.73;;
12038;SDS011;6080;48.818;9.526;2023-06-04T04:25:54;30.80;;;28.87;;
12038;SDS011;6080;48.818;9.526;2023-06-04T04:28:22;42.13;;;39.93;;
12038;SDS011;6080;48.818;9.526;2023-06-04T04:30:47;47.00;;;44.33;;
12038;SDS011;6080;48.818;9.526;2023-06-04T04:33:14;45.50;;;42.93;;
12038;SDS011;6080;48.818;9.526;2023-06-04T04:35:44;52.17;;;49.50;;
12038;SDS011;6080;48.818;9.526;2023-06-04T04:38:10;66.70;;;63.13;;
12038;SDS011;6080;48.818;9.526;2023-06-04T04:40:36;54.90;;;52.10;;
12038;SDS011;6080;48.818;9.526;2023-06-04T04:43:02;43.07;;;40.70;;
12038;SDS011;6080;48.818;9.526;2023-06-04T04:45:29;21.53;;;20.33;;
12038;SDS011;6080;48.818;9.526;2023-06-04T04:47:55;13.70;;;12.93;;
12038;SDS011;6080;48.818;9.526;2023-06-04T04:50:21;21.07;;;19.87;;
12038;SDS011;6080;48.818;9.526;2023-06-04T04:52:47;23.53;;;22.33;;
12038;SDS011;6080;48.818;9.526;2023-06-04T04:55:13;22.93;;;21.60;;
12038;SDS011;6080;48.818;9.526;2023-06-04T04:57:39;20.53;;;19.33;;
12038;SDS011;6080;48.818;9.526;2023-06-04T05:00:05;36.53;;;34.47;;
12038;SDS011;6080;48.818;9.526;2023-06-04T05:02:33;45.53;;;43.13;;
12038;SDS011;6080;48.818;9.526;2023-06-04T05:05:03;29.40;;;27.80;;
12038;SDS011;6080;48.818;9.526;2023-06-04T05:07:29;8.27;;;7.83;;
12038;SDS011;6080;48.818;9.526;2023-06-04T05:09:55;5.53;;;5.13;;
12038;SDS011;6080;48.818;9.526;2023-06-04T05:12:21;11.27;;;10.53;;
12038;SDS011;6080;48.818;9.526;2023-06-04T05:14:46;33.83;;;32.00;;
12038;SDS011;6080;48.818;9.526;2023-06-04T05:17:12;19.07;;;17.83;;
12038;SDS011;6080;48.818;9.526;2023-06-04T05:19:38;11.77;;;11.13;;
12038;SDS011;6080;48.818;9.526;2023-06-04T05:22:04;10.63;;;9.83;;
12038;SDS011;6080;48.818;9.526;2023-06-04T05:24:30;11.43;;;10.53;;
12038;SDS011;6080;48.818;9.526;2023-06-04T05:26:57;9.13;;;8.60;;
12038;SDS011;6080;48.818;9.526;2023-06-04T05:29:23;42.10;;;39.70;;
12038;SDS011;6080;48.818;9.526;2023-06-04T05:31:49;12.65;;;11.95;;
12038;SDS011;6080;48.818;9.526;2023-06-04T05:34:15;7.50;;;7.10;;
12038;SDS011;6080;48.818;9.526;2023-06-04T05:36:42;8.73;;;8.18;;
12038;SDS011;6080;48.818;9.526;2023-06-04T05:39:09;5.88;;;5.43;;
12038;SDS011;6080;48.818;9.526;2023-06-04T05:41:35;4.28;;;3.97;;
12038;SDS011;6080;48.818;9.526;2023-06-04T05:44:02;5.30;;;5.00;;
12038;SDS011;6080;48.818;9.526;2023-06-04T05:46:28;6.00;;;5.70;;
12038;SDS011;6080;48.818;9.526;2023-06-04T05:48:54;4.50;;;3.90;;
12038;SDS011;6080;48.818;9.526;2023-06-04T05:51:20;5.57;;;5.18;;
12038;SDS011;6080;48.818;9.526;2023-06-04T05:53:46;6.13;;;5.63;;
12038;SDS011;6080;48.818;9.526;2023-06-04T05:56:12;5.70;;;5.30;;
12038;SDS011;6080;48.818;9.526;2023-06-04T05:58:38;4.70;;;4.40;;
12038;SDS011;6080;48.818;9.526;2023-06-04T06:01:04;5.22;;;4.93;;
12038;SDS011;6080;48.818;9.526;2023-06-04T06:03:30;4.72;;;4.43;;
12038;SDS011;6080;48.818;9.526;2023-06-04T06:05:56;4.68;;;4.03;;
12038;SDS011;6080;48.818;9.526;2023-06-04T06:08:25;5.22;;;4.78;;
12038;SDS011;6080;48.818;9.526;2023-06-04T06:10:50;11.43;;;10.82;;
12038;SDS011;6080;48.818;9.526;2023-06-04T06:13:16;25.27;;;23.98;;
12038;SDS011;6080;48.818;9.526;2023-06-04T06:15:42;21.63;;;20.33;;
12038;SDS011;6080;48.818;9.526;2023-06-04T06:18:08;20.42;;;19.15;;
12038;SDS011;6080;48.818;9.526;2023-06-04T06:20:34;9.40;;;8.90;;
12038;SDS011;6080;48.818;9.526;2023-06-04T06:23:06;7.68;;;7.25;;
12038;SDS011;6080;48.818;9.526;2023-06-04T06:25:33;4.85;;;4.57;;
12038;SDS011;6080;48.818;9.526;2023-06-04T06:27:59;4.82;;;4.53;;
12038;SDS011;6080;48.818;9.526;2023-06-04T06:30:24;6.63;;;6.22;;
12038;SDS011;6080;48.818;9.526;2023-06-04T06:32:50;6.32;;;5.93;;
12038;SDS011;6080;48.818;9.526;2023-06-04T06:35:17;6.25;;;5.95;;
12038;SDS011;6080;48.818;9.526;2023-06-04T06:37:42;6.13;;;5.63;;
12038;SDS011;6080;48.818;9.526;2023-06-04T06:40:09;6.30;;;5.82;;
12038;SDS011;6080;48.818;9.526;2023-06-04T06:42:35;6.85;;;6.45;;
12038;SDS011;6080;48.818;9.526;2023-06-04T06:45:01;4.88;;;4.57;;
12038;SDS011;6080;48.818;9.526;2023-06-04T06:47:27;5.03;;;4.72;;
12038;SDS011;6080;48.818;9.526;2023-06-04T06:49:53;6.30;;;5.90;;
12038;SDS011;6080;48.818;9.526;2023-06-04T06:52:19;4.90;;;4.65;;
12038;SDS011;6080;48.818;9.526;2023-06-04T06:54:45;5.07;;;4.60;;
12038;SDS011;6080;48.818;9.526;2023-06-04T06:57:11;6.25;;;5.70;;
12038;SDS011;6080;48.818;9.526;2023-06-04T06:59:37;4.60;;;4.28;;
12038;SDS011;6080;48.818;9.526;2023-06-04T07:02:03;5.90;;;5.55;;
12038;SDS011;6080;48.818;9.526;2023-06-04T07:04:30;5.93;;;5.43;;
12038;SDS011;6080;48.818;9.526;2023-06-04T07:06:56;6.95;;;6.53;;
12038;SDS011;6080;48.818;9.526;2023-06-04T07:09:22;5.60;;;5.18;;
12038;SDS011;6080;48.818;9.526;2023-06-04T07:11:47;4.47;;;4.10;;
12038;SDS011;6080;48.818;9.526;2023-06-04T07:14:14;5.03;;;4.78;;
12038;SDS011;6080;48.818;9.526;2023-06-04T07:16:40;5.70;;;5.20;;
12038;SDS011;6080;48.818;9.526;2023-06-04T07:19:05;8.40;;;7.90;;
12038;SDS011;6080;48.818;9.526;2023-06-04T07:21:31;9.27;;;8.48;;
12038;SDS011;6080;48.818;9.526;2023-06-04T07:23:57;8.88;;;8.13;;
12038;SDS011;6080;48.818;9.526;2023-06-04T07:26:23;5.03;;;4.38;;
12038;SDS011;6080;48.818;9.526;2023-06-04T07:28:50;7.70;;;7.18;;
12038;SDS011;6080;48.818;9.526;2023-06-04T07:31:16;12.20;;;11.50;;
12038;SDS011;6080;48.818;9.526;2023-06-04T07:33:42;9.35;;;8.55;;
12038;SDS011;6080;48.818;9.526;2023-06-04T07:36:14;11.43;;;10.50;;
12038;SDS011;6080;48.818;9.526;2023-06-04T07:38:41;10.05;;;9.35;;
12038;SDS011;6080;48.818;9.526;2023-06-04T07:41:08;11.57;;;10.90;;
12038;SDS011;6080;48.818;9.526;2023-06-04T07:43:34;14.43;;;13.50;;
12038;SDS011;6080;48.818;9.526;2023-06-04T07:46:00;13.52;;;12.40;;
12038;SDS011;6080;48.818;9.526;2023-06-04T07:48:27;15.23;;;14.30;;
12038;SDS011;6080;48.818;9.526;2023-06-04T07:50:57;15.38;;;14.35;;
12038;SDS011;6080;48.818;9.526;2023-06-04T07:53:23;12.38;;;11.48;;
12038;SDS011;6080;48.818;9.526;2023-06-04T07:55:49;14.15;;;13.40;;
12038;SDS011;6080;48.818;9.526;2023-06-04T07:58:15;15.90;;;14.90;;
12038;SDS011;6080;48.818;9.526;2023-06-04T08:00:40;11.68;;;10.98;;
12038;SDS011;6080;48.818;9.526;2023-06-04T08:03:06;14.93;;;14.13;;
12038;SDS011;6080;48.818;9.526;2023-06-04T08:05:32;11.55;;;10.95;;
12038;SDS011;6080;48.818;9.526;2023-06-04T08:07:59;14.20;;;13.50;;
12038;SDS011;6080;48.818;9.526;2023-06-04T08:10:25;12.98;;;11.95;;
12038;SDS011;6080;48.818;9.526;2023-06-04T08:12:51;11.45;;;10.75;;
12038;SDS011;6080;48.818;9.526;2023-06-04T08:15:16;9.40;;;8.90;;
12038;SDS011;6080;48.818;9.526;2023-06-04T08:17:42;11.80;;;10.93;;
12038;SDS011;6080;48.818;9.526;2023-06-04T08:20:08;13.88;;;12.65;;
12038;SDS011;6080;48.818;9.526;2023-06-04T08:22:34;10.48;;;9.88;;
12038;SDS011;6080;48.818;9.526;2023-06-04T08:25:00;5.72;;;5.32;;
12038;SDS011;6080;48.818;9.526;2023-06-04T08:27:25;12.75;;;11.75;;
12038;SDS011;6080;48.818;9.526;2023-06-04T08:29:51;15.20;;;13.95;;
12038;SDS011;6080;48.818;9.526;2023-06-04T08:32:17;8.32;;;7.63;;
12038;SDS011;6080;48.818;9.526;2023-06-04T08:34:43;6.13;;;5.65;;
12038;SDS011;6080;48.818;9.526;2023-06-04T08:37:09;5.13;;;4.72;;
12038;SDS011;6080;48.818;9.526;2023-06-04T08:39:35;5.60;;;5.22;;
12038;SDS011;6080;48.818;9.526;2023-06-04T08:42:03;7.28;;;6.85;;
12038;SDS011;6080;48.818;9.526;2023-06-04T08:44:32;6.60;;;6.13;;
12038;SDS011;6080;48.818;9.526;2023-06-04T08:47:02;4.90;;;4.50;;
12038;SDS011;6080;48.818;9.526;2023-06-04T08:49:33;5.75;;;5.07;;
12038;SDS011;6080;48.818;9.526;2023-06-04T08:52:01;4.97;;;4.57;;
12038;SDS011;6080;48.818;9.526;2023-06-04T08:54:28;5.00;;;4.53;;
12038;SDS011;6080;48.818;9.526;2023-06-04T08:56:55;9.80;;;5.47;;
12038;SDS011;6080;48.818;9.526;2023-06-04T08:59:23;5.93;;;5.00;;
12038;SDS011;6080;48.818;9.526;2023-06-04T09:01:51;7.43;;;6.88;;
12038;SDS011;6080;48.818;9.526;2023-06-04T09:04:20;5.75;;;5.43;;
12038;SDS011;6080;48.818;9.526;2023-06-04T09:06:46;5.97;;;5.00;;
12038;SDS011;6080;48.818;9.526;2023-06-04T09:09:13;4.93;;;4.55;;
12038;SDS011;6080;48.818;9.526;2023-06-04T09:11:49;10.80;;;10.05;;
12038;SDS011;6080;48.818;9.526;2023-06-04T09:14:18;10.95;;;10.05;;
12038;SDS011;6080;48.818;9.526;2023-06-04T09:16:48;9.68;;;8.98;;
12038;SDS011;6080;48.818;9.526;2023-06-04T09:19:17;8.73;;;7.82;;
12038;SDS011;6080;48.818;9.526;2023-06-04T09:21:51;6.07;;;5.68;;
12038;SDS011;6080;48.818;9.526;2023-06-04T09:24:25;4.53;;;4.22;;
12038;SDS011;6080;48.818;9.526;2023-06-04T09:27:09;5.03;;;4.20;;
12038;SDS011;6080;48.818;9.526;2023-06-04T09:29:36;5.78;;;4.50;;
12038;SDS011;6080;48.818;9.526;2023-06-04T09:32:02;5.32;;;4.80;;
12038;SDS011;6080;48.818;9.526;2023-06-04T09:34:28;4.70;;;4.35;;
12038;SDS011;6080;48.818;9.526;2023-06-04T09:36:55;4.80;;;4.50;;
12038;SDS011;6080;48.818;9.526;2023-06-04T09:39:21;7.28;;;4.50;;
12038;SDS011;6080;48.818;9.526;2023-06-04T09:42:01;5.97;;;5.47;;
12038;SDS011;6080;48.818;9.526;2023-06-04T09:44:30;6.43;;;5.93;;
12038;SDS011;6080;48.818;9.526;2023-06-04T09:46:56;6.18;;;5.78;;
12038;SDS011;6080;48.818;9.526;2023-06-04T09:49:23;7.35;;;6.85;;
12038;SDS011;6080;48.818;9.526;2023-06-04T09:51:49;13.00;;;12.00;;
12038;SDS011;6080;48.818;9.526;2023-06-04T09:54:15;7.30;;;6.80;;
12038;SDS011;6080;48.818;9.526;2023-06-04T09:56:42;8.52;;;7.07;;
12038;SDS011;6080;48.818;9.526;2023-06-04T09:59:08;18.33;;;16.92;;
12038;SDS011;6080;48.818;9.526;2023-06-04T10:01:36;18.20;;;16.80;;
12038;SDS011;6080;48.818;9.526;2023-06-04T10:04:07;23.90;;;22.50;;
12038;SDS011;6080;48.818;9.526;2023-06-04T10:06:34;37.33;;;35.20;;
12038;SDS011;6080;48.818;9.526;2023-06-04T10:09:07;43.58;;;41.17;;
12038;SDS011;6080;48.818;9.526;2023-06-04T10:11:41;45.42;;;42.40;;
12038;SDS011;6080;48.818;9.526;2023-06-04T10:17:11;47.03;;;44.30;;
12038;SDS011;6080;48.818;9.526;2023-06-04T10:19:38;34.95;;;33.10;;
12038;SDS011;6080;48.818;9.526;2023-06-04T10:22:08;35.08;;;33.08;;
12038;SDS011;6080;48.818;9.526;2023-06-04T10:24:36;25.52;;;23.75;;
12038;SDS011;6080;48.818;9.526;2023-06-04T10:27:03;12.88;;;12.13;;
12038;SDS011;6080;48.818;9.526;2023-06-04T10:29:35;11.18;;;10.40;;
12038;SDS011;6080;48.818;9.526;2023-06-04T10:32:01;11.38;;;10.57;;
12038;SDS011;6080;48.818;9.526;2023-06-04T10:34:28;12.15;;;11.30;;
12038;SDS011;6080;48.818;9.526;2023-06-04T10:36:54;11.98;;;11.27;;
12038;SDS011;6080;48.818;9.526;2023-06-04T10:39:30;12.48;;;11.77;;
12038;SDS011;6080;48.818;9.526;2023-06-04T10:42:00;10.70;;;10.00;;
12038;SDS011;6080;48.818;9.526;2023-06-04T10:44:27;12.18;;;11.57;;
12038;SDS011;6080;48.818;9.526;2023-06-04T10:46:57;11.18;;;10.45;;
12038;SDS011;6080;48.818;9.526;2023-06-04T10:49:30;16.02;;;15.15;;
12038;SDS011;6080;48.818;9.526;2023-06-04T10:51:57;16.02;;;15.13;;
12038;SDS011;6080;48.818;9.526;2023-06-04T10:54:28;15.48;;;14.55;;
12038;SDS011;6080;48.818;9.526;2023-06-04T10:56:54;19.98;;;18.88;;
12038;SDS011;6080;48.818;9.526;2023-06-04T10:59:20;19.45;;;18.35;;
12038;SDS011;6080;48.818;9.526;2023-06-04T11:01:46;22.02;;;20.73;;
12038;SDS011;6080;48.818;9.526;2023-06-04T11:04:23;17.83;;;16.85;;
12038;SDS011;6080;48.818;9.526;2023-06-04T11:07:02;19.23;;;18.02;;
12038;SDS011;6080;48.818;9.526;2023-06-04T11:09:57;21.60;;;20.35;;
12038;SDS011;6080;48.818;9.526;2023-06-04T11:12:22;23.33;;;22.08;;
12038;SDS011;6080;48.818;9.526;2023-06-04T11:14:54;21.48;;;19.75;;
12038;SDS011;6080;48.818;9.526;2023-06-04T11:17:21;18.67;;;17.23;;
12038;SDS011;6080;48.818;9.526;2023-06-04T11:19:46;18.85;;;17.75;;
12038;SDS011;6080;48.818;9.526;2023-06-04T11:22:12;14.65;;;13.80;;
12038;SDS011;6080;48.818;9.526;2023-06-04T11:24:38;12.82;;;11.85;;
12038;SDS011;6080;48.818;9.526;2023-06-04T11:27:05;13.55;;;12.63;;
12038;SDS011;6080;48.818;9.526;2023-06-04T11:29:31;12.38;;;11.68;;
12038;SDS011;6080;48.818;9.526;2023-06-04T11:31:58;13.02;;;12.13;;
12038;SDS011;6080;48.818;9.526;2023-06-04T11:34:27;9.70;;;8.75;;
12038;SDS011;6080;48.818;9.526;2023-06-04T11:36:55;9.27;;;6.55;;
12038;SDS011;6080;48.818;9.526;2023-06-04T11:39:21;5.70;;;4.80;;
12038;SDS011;6080;48.818;9.526;2023-06-04T11:41:47;4.38;;;4.07;;
12038;SDS011;6080;48.818;9.526;2023-06-04T11:44:18;5.40;;;5.00;;
12038;SDS011;6080;48.818;9.526;2023-06-04T11:46:45;4.57;;;4.18;;
12038;SDS011;6080;48.818;9.526;2023-06-04T11:49:16;5.57;;;4.78;;
12038;SDS011;6080;48.818;9.526;2023-06-04T11:51:47;6.25;;;5.85;;
12038;SDS011;6080;48.818;9.526;2023-06-04T11:54:17;7.45;;;6.95;;
12038;SDS011;6080;48.818;9.526;2023-06-04T11:56:43;7.95;;;7.40;;
12038;SDS011;6080;48.818;9.526;2023-06-04T11:59:11;8.15;;;7.47;;
12038;SDS011;6080;48.818;9.526;2023-06-04T12:01:42;11.23;;;10.63;;
12038;SDS011;6080;48.818;9.526;2023-06-04T12:04:12;8.07;;;7.57;;
12038;SDS011;6080;48.818;9.526;2023-06-04T12:06:38;4.68;;;4.28;;
12038;SDS011;6080;48.818;9.526;2023-06-04T12:09:19;10.27;;;9.32;;
12038;SDS011;6080;48.818;9.526;2023-06-04T12:11:46;7.60;;;7.07;;
12038;SDS011;6080;48.818;9.526;2023-06-04T12:14:15;8.80;;;7.85;;
12038;SDS011;6080;48.818;9.526;2023-06-04T12:16:56;13.82;;;12.80;;
12038;SDS011;6080;48.818;9.526;2023-06-04T12:19:22;13.73;;;12.95;;
12038;SDS011;6080;48.818;9.526;2023-06-04T12:21:58;11.23;;;10.27;;
12038;SDS011;6080;48.818;9.526;2023-06-04T12:24:34;11.68;;;10.88;;
12038;SDS011;6080;48.818;9.526;2023-06-04T12:27:27;5.45;;;5.05;;
12038;SDS011;6080;48.818;9.526;2023-06-04T12:32:22;4.97;;;4.68;;
12038;SDS011;6080;48.818;9.526;2023-06-04T12:34:48;9.45;;;8.85;;
12038;SDS011;6080;48.818;9.526;2023-06-04T12:37:14;9.20;;;8.30;;
12038;SDS011;6080;48.818;9.526;2023-06-04T12:39:39;7.43;;;6.75;;
12038;SDS011;6080;48.818;9.526;2023-06-04T12:42:06;5.53;;;5.05;;
12038;SDS011;6080;48.818;9.526;2023-06-04T12:44:35;5.75;;;5.35;;
12038;SDS011;6080;48.818;9.526;2023-06-04T12:47:02;7.85;;;7.20;;
12038;SDS011;6080;48.818;9.526;2023-06-04T12:49:28;6.78;;;6.28;;
12038;SDS011;6080;48.818;9.526;2023-06-04T12:51:54;5.90;;;5.50;;
12038;SDS011;6080;48.818;9.526;2023-06-04T12:54:19;7.07;;;6.57;;
12038;SDS011;6080;48.818;9.526;2023-06-04T12:56:45;7.60;;;7.00;;
12038;SDS011;6080;48.818;9.526;2023-06-04T12:59:11;11.10;;;10.43;;
12038;SDS011;6080;48.818;9.526;2023-06-04T13:01:37;11.05;;;10.38;;
12038;SDS011;6080;48.818;9.526;2023-06-04T13:04:03;6.97;;;6.57;;
12038;SDS011;6080;48.818;9.526;2023-06-04T13:06:30;8.38;;;7.78;;
12038;SDS011;6080;48.818;9.526;2023-06-04T13:08:56;7.70;;;7.10;;
12038;SDS011;6080;48.818;9.526;2023-06-04T13:11:22;6.32;;;5.05;;
12038;SDS011;6080;48.818;9.526;2023-06-04T13:13:48;4.97;;;4.55;;
12038;SDS011;6080;48.818;9.526;2023-06-04T13:16:14;5.57;;;4.28;;
12038;SDS011;6080;48.818;9.526;2023-06-04T13:18:39;4.95;;;4.55;;
12038;SDS011;6080;48.818;9.526;2023-06-04T13:21:05;4.97;;;4.60;;
12038;SDS011;6080;48.818;9.526;2023-06-04T13:23:31;5.65;;;5.22;;
12038;SDS011;6080;48.818;9.526;2023-06-04T13:25:57;5.50;;;5.10;;
12038;SDS011;6080;48.818;9.526;2023-06-04T13:28:22;6.25;;;5.05;;
12038;SDS011;6080;48.818;9.526;2023-06-04T13:30:48;6.43;;;6.05;;
12038;SDS011;6080;48.818;9.526;2023-06-04T13:33:14;8.07;;;7.57;;
12038;SDS011;6080;48.818;9.526;2023-06-04T13:35:40;8.70;;;8.13;;
12038;SDS011;6080;48.818;9.526;2023-06-04T13:38:07;11.70;;;10.95;;
12038;SDS011;6080;48.818;9.526;2023-06-04T13:40:36;12.85;;;12.05;;
12038;SDS011;6080;48.818;9.526;2023-06-04T13:43:02;9.38;;;8.88;;
12038;SDS011;6080;48.818;9.526;2023-06-04T13:45:30;8.15;;;7.45;;
12038;SDS011;6080;48.818;9.526;2023-06-04T13:47:55;8.15;;;7.70;;
12038;SDS011;6080;48.818;9.526;2023-06-04T13:50:24;10.55;;;9.85;;
12038;SDS011;6080;48.818;9.526;2023-06-04T13:52:50;8.88;;;8.07;;
12038;SDS011;6080;48.818;9.526;2023-06-04T13:55:17;11.98;;;11.18;;
12038;SDS011;6080;48.818;9.526;2023-06-04T13:57:43;11.93;;;11.07;;
12038;SDS011;6080;48.818;9.526;2023-06-04T14:00:09;10.00;;;9.30;;
12038;SDS011;6080;48.818;9.526;2023-06-04T14:02:35;10.32;;;9.63;;
12038;SDS011;6080;48.818;9.526;2023-06-04T14:05:01;10.90;;;10.35;;
12038;SDS011;6080;48.818;9.526;2023-06-04T14:07:27;12.70;;;11.90;;
12038;SDS011;6080;48.818;9.526;2023-06-04T14:09:53;9.05;;;8.38;;
12038;SDS011;6080;48.818;9.526;2023-06-04T14:12:22;10.02;;;9.43;;
12038;SDS011;6080;48.818;9.526;2023-06-04T14:14:48;7.53;;;6.90;;
12038;SDS011;6080;48.818;9.526;2023-06-04T14:17:14;5.45;;;4.95;;
12038;SDS011;6080;48.818;9.526;2023-06-04T14:19:40;5.97;;;5.57;;
12038;SDS011;6080;48.818;9.526;2023-06-04T14:22:06;5.55;;;5.15;;
12038;SDS011;6080;48.818;9.526;2023-06-04T14:24:32;6.97;;;6.55;;
12038;SDS011;6080;48.818;9.526;2023-06-04T14:26:58;9.30;;;8.70;;
12038;SDS011;6080;48.818;9.526;2023-06-04T14:29:24;16.85;;;15.95;;
12038;SDS011;6080;48.818;9.526;2023-06-04T14:31:50;23.60;;;22.23;;
12038;SDS011;6080;48.818;9.526;2023-06-04T14:34:15;22.05;;;20.70;;
12038;SDS011;6080;48.818;9.526;2023-06-04T14:36:41;27.05;;;25.60;;
12038;SDS011;6080;48.818;9.526;2023-06-04T14:39:07;22.40;;;21.25;;
12038;SDS011;6080;48.818;9.526;2023-06-04T14:41:33;26.42;;;25.13;;
12038;SDS011;6080;48.818;9.526;2023-06-04T14:43:58;22.17;;;20.65;;
12038;SDS011;6080;48.818;9.526;2023-06-04T14:46:25;24.42;;;23.13;;
12038;SDS011;6080;48.818;9.526;2023-06-04T14:48:51;23.08;;;21.70;;
12038;SDS011;6080;48.818;9.526;2023-06-04T14:51:17;25.38;;;24.08;;
12038;SDS011;6080;48.818;9.526;2023-06-04T14:53:43;24.17;;;22.90;;
12038;SDS011;6080;48.818;9.526;2023-06-04T14:56:08;21.83;;;20.55;;
12038;SDS011;6080;48.818;9.526;2023-06-04T14:58:34;22.88;;;21.58;;
12038;SDS011;6080;48.818;9.526;2023-06-04T15:01:00;21.33;;;20.23;;
12038;SDS011;6080;48.818;9.526;2023-06-04T15:03:28;16.00;;;15.05;;
12038;SDS011;6080;48.818;9.526;2023-06-04T15:05:55;17.92;;;16.92;;
12038;SDS011;6080;48.818;9.526;2023-06-04T15:08:21;31.52;;;29.75;;
12038;SDS011;6080;48.818;9.526;2023-06-04T15:10:47;27.33;;;25.80;;
12038;SDS011;6080;48.818;9.526;2023-06-04T15:13:13;24.08;;;22.88;;
12038;SDS011;6080;48.818;9.526;2023-06-04T15:15:39;22.10;;;20.88;;
12038;SDS011;6080;48.818;9.526;2023-06-04T15:18:05;25.48;;;24.17;;
12038;SDS011;6080;48.818;9.526;2023-06-04T15:20:33;24.52;;;23.23;;
12038;SDS011;6080;48.818;9.526;2023-06-04T15:22:59;19.50;;;18.25;;
12038;SDS011;6080;48.818;9.526;2023-06-04T15:25:25;21.27;;;19.98;;
12038;SDS011;6080;48.818;9.526;2023-06-04T15:27:50;28.77;;;27.17;;
12038;SDS011;6080;48.818;9.526;2023-06-04T15:30:16;27.15;;;25.73;;
12038;SDS011;6080;48.818;9.526;2023-06-04T15:32:43;28.92;;;27.45;;
12038;SDS011;6080;48.818;9.526;2023-06-04T15:35:09;28.77;;;27.27;;
12038;SDS011;6080;48.818;9.526;2023-06-04T15:37:36;24.27;;;22.92;;
12038;SDS011;6080;48.818;9.526;2023-06-04T15:40:01;16.67;;;15.77;;
12038;SDS011;6080;48.818;9.526;2023-06-04T15:42:28;8.20;;;7.65;;
12038;SDS011;6080;48.818;9.526;2023-06-04T15:44:54;7.43;;;6.88;;
12038;SDS011;6080;48.818;9.526;2023-06-04T15:47:19;5.63;;;5.18;;
12038;SDS011;6080;48.818;9.526;2023-06-04T15:49:45;5.90;;;5.50;;
12038;SDS011;6080;48.818;9.526;2023-06-04T15:52:11;40.53;;;38.30;;
12038;SDS011;6080;48.818;9.526;2023-06-04T15:54:37;54.85;;;51.97;;
12038;SDS011;6080;48.818;9.526;2023-06-04T15:57:03;49.55;;;47.08;;
12038;SDS011;6080;48.818;9.526;2023-06-04T15:59:28;43.70;;;41.53;;
12038;SDS011;6080;48.818;9.526;2023-06-04T16:01:54;33.17;;;31.45;;
12038;SDS011;6080;48.818;9.526;2023-06-04T16:04:20;7.70;;;7.10;;
12038;SDS011;6080;48.818;9.526;2023-06-04T16:06:46;4.35;;;4.00;;
12038;SDS011;6080;48.818;9.526;2023-06-04T16:09:11;4.65;;;4.35;;
12038;SDS011;6080;48.818;9.526;2023-06-04T16:11:37;5.82;;;5.32;;
12038;SDS011;6080;48.818;9.526;2023-06-04T16:14:03;4.75;;;4.45;;
12038;SDS011;6080;48.818;9.526;2023-06-04T16:16:30;5.13;;;4.63;;
12038;SDS011;6080;48.818;9.526;2023-06-04T16:18:57;5.28;;;4.85;;
12038;SDS011;6080;48.818;9.526;2023-06-04T16:21:24;7.80;;;7.30;;
12038;SDS011;6080;48.818;9.526;2023-06-04T16:23:51;12.55;;;11.77;;
12038;SDS011;6080;48.818;9.526;2023-06-04T16:26:17;28.95;;;27.42;;
12038;SDS011;6080;48.818;9.526;2023-06-04T16:28:43;47.90;;;45.50;;
12038;SDS011;6080;48.818;9.526;2023-06-04T16:31:08;58.88;;;55.90;;
12038;SDS011;6080;48.818;9.526;2023-06-04T16:33:34;38.40;;;36.47;;
12038;SDS011;6080;48.818;9.526;2023-06-04T16:36:00;37.72;;;35.78;;
12038;SDS011;6080;48.818;9.526;2023-06-04T16:38:26;43.13;;;40.75;;
12038;SDS011;6080;48.818;9.526;2023-06-04T16:40:52;42.75;;;40.40;;
12038;SDS011;6080;48.818;9.526;2023-06-04T16:43:21;47.85;;;45.42;;
12038;SDS011;6080;48.818;9.526;2023-06-04T16:45:46;49.00;;;46.60;;
12038;SDS011;6080;48.818;9.526;2023-06-04T16:48:12;45.75;;;43.38;;
12038;SDS011;6080;48.818;9.526;2023-06-04T16:50:38;44.90;;;42.65;;
12038;SDS011;6080;48.818;9.526;2023-06-04T16:53:04;45.35;;;43.13;;
12038;SDS011;6080;48.818;9.526;2023-06-04T16:55:31;43.22;;;40.85;;
12038;SDS011;6080;48.818;9.526;2023-06-04T16:57:58;44.30;;;42.00;;
12038;SDS011;6080;48.818;9.526;2023-06-04T17:00:24;52.67;;;49.90;;
12038;SDS011;6080;48.818;9.526;2023-06-04T17:02:50;56.78;;;53.90;;
12038;SDS011;6080;48.818;9.526;2023-06-04T17:05:16;61.92;;;58.78;;
12038;SDS011;6080;48.818;9.526;2023-06-04T17:07:43;62.50;;;59.35;;
12038;SDS011;6080;48.818;9.526;2023-06-04T17:10:09;55.53;;;52.83;;
12038;SDS011;6080;48.818;9.526;2023-06-04T17:12:38;50.33;;;47.88;;
12038;SDS011;6080;48.818;9.526;2023-06-04T17:15:04;49.42;;;46.67;;
12038;SDS011;6080;48.818;9.526;2023-06-04T17:17:31;45.35;;;42.90;;
12038;SDS011;6080;48.818;9.526;2023-06-04T17:19:57;42.72;;;40.55;;
12038;SDS011;6080;48.818;9.526;2023-06-04T17:22:22;40.33;;;37.92;;
12038;SDS011;6080;48.818;9.526;2023-06-04T17:24:49;32.35;;;30.73;;
12038;SDS011;6080;48.818;9.526;2023-06-04T17:27:15;24.25;;;22.98;;
12038;SDS011;6080;48.818;9.526;2023-06-04T17:29:41;16.08;;;15.18;;
12038;SDS011;6080;48.818;9.526;2023-06-04T17:32:08;24.20;;;22.95;;
12038;SDS011;6080;48.818;9.526;2023-06-04T17:34:34;46.90;;;44.53;;
12038;SDS011;6080;48.818;9.526;2023-06-04T17:37:00;38.15;;;36.08;;
12038;SDS011;6080;48.818;9.526;2023-06-04T17:39:28;34.88;;;32.58;;
12038;SDS011;6080;48.818;9.526;2023-06-04T17:41:57;29.67;;;28.13;;
12038;SDS011;6080;48.818;9.526;2023-06-04T17:44:26;42.95;;;40.65;;
12038;SDS011;6080;48.818;9.526;2023-06-04T17:46:52;46.38;;;43.78;;
12038;SDS011;6080;48.818;9.526;2023-06-04T17:49:18;42.70;;;40.60;;
12038;SDS011;6080;48.818;9.526;2023-06-04T17:51:44;48.75;;;46.33;;